createdAt,value
2022-12-25T00:01:33.495Z,3.28
2022-12-25T00:04:01.266Z,4.40
2022-12-25T00:06:28.796Z,4.40
2022-12-25T00:08:56.159Z,3.62
2022-12-25T00:11:23.842Z,3.75
2022-12-25T00:13:51.271Z,4.45
2022-12-25T00:16:21.110Z,4.03
2022-12-25T00:18:48.993Z,3.55
2022-12-25T00:21:16.481Z,3.35
2022-12-25T00:23:44.140Z,3.53
2022-12-25T00:26:14.781Z,3.17
2022-12-25T00:28:42.371Z,3.40
2022-12-25T00:31:14.298Z,3.17
2022-12-25T00:33:43.547Z,4.28
2022-12-25T00:36:12.039Z,2.03
2022-12-25T00:38:40.362Z,2.45
2022-12-25T00:41:12.986Z,2.00
2022-12-25T00:43:42.032Z,2.35
2022-12-25T00:46:11.617Z,2.10
2022-12-25T00:48:39.706Z,2.03
2022-12-25T00:51:11.091Z,2.47
2022-12-25T00:53:38.918Z,1.92
2022-12-25T00:56:07.859Z,2.08
2022-12-25T00:58:35.913Z,2.22
2022-12-25T01:01:04.189Z,2.70
2022-12-25T01:03:31.663Z,2.33
2022-12-25T01:06:01.510Z,1.90
2022-12-25T01:08:30.596Z,2.12
2022-12-25T01:11:00.662Z,2.37
2022-12-25T01:13:29.248Z,2.72
2022-12-25T01:15:57.163Z,3.08
2022-12-25T01:18:25.144Z,2.83
2022-12-25T01:20:52.558Z,3.15
2022-12-25T01:23:20.283Z,2.65
2022-12-25T01:25:47.721Z,2.80
2022-12-25T01:28:16.131Z,2.70
2022-12-25T01:30:49.655Z,3.22
2022-12-25T01:33:17.066Z,2.40
2022-12-25T01:35:44.783Z,2.03
2022-12-25T01:38:12.199Z,2.03
2022-12-25T01:40:39.959Z,2.85
2022-12-25T01:43:28.806Z,2.58
2022-12-25T01:45:56.464Z,2.25
2022-12-25T01:48:33.372Z,2.62
2022-12-25T01:51:21.609Z,2.83
2022-12-25T01:53:49.321Z,2.67
2022-12-25T01:56:16.746Z,2.87
2022-12-25T01:58:44.178Z,2.50
2022-12-25T02:01:11.961Z,2.17
2022-12-25T02:03:42.355Z,2.50
2022-12-25T02:06:10.203Z,2.67
2022-12-25T02:08:37.793Z,2.42
2022-12-25T02:11:05.469Z,2.37
2022-12-25T02:13:32.945Z,2.17
2022-12-25T02:16:00.481Z,2.58
2022-12-25T02:18:30.939Z,2.15
2022-12-25T02:21:20.567Z,2.25
2022-12-25T02:23:57.123Z,2.10
2022-12-25T02:26:30.906Z,1.90
2022-12-25T02:29:32.018Z,1.85
2022-12-25T02:32:08.141Z,2.00
2022-12-25T02:35:10.172Z,2.00
2022-12-25T02:37:52.722Z,2.20
2022-12-25T02:40:33.221Z,2.03
2022-12-25T02:43:22.099Z,2.00
2022-12-25T02:46:19.494Z,2.10
2022-12-25T02:49:38.531Z,2.60
2022-12-25T02:52:34.623Z,1.83
2022-12-25T02:55:25.668Z,1.95
2022-12-25T02:58:13.320Z,1.80
2022-12-25T03:01:02.793Z,2.15
2022-12-25T03:03:51.696Z,1.90
2022-12-25T03:06:39.867Z,1.90
2022-12-25T03:09:28.355Z,2.05
2022-12-25T03:12:13.757Z,2.20
2022-12-25T03:15:00.229Z,2.30
2022-12-25T03:17:27.673Z,2.15
2022-12-25T03:20:13.745Z,1.87
2022-12-25T03:23:01.868Z,2.45
2022-12-25T03:25:48.017Z,2.17
2022-12-25T03:28:15.383Z,2.22
2022-12-25T03:31:11.429Z,2.17
2022-12-25T03:34:22.015Z,1.92
2022-12-25T03:37:34.073Z,2.17
2022-12-25T03:40:29.008Z,2.03
2022-12-25T03:43:29.530Z,2.00
2022-12-25T03:46:05.303Z,2.10
2022-12-25T03:48:52.836Z,2.40
2022-12-25T03:51:43.418Z,2.03
2022-12-25T03:54:30.190Z,2.30
2022-12-25T03:57:17.400Z,2.03
2022-12-25T04:00:03.915Z,2.37
2022-12-25T04:02:56.103Z,2.03
2022-12-25T04:05:42.489Z,2.67
2022-12-25T04:08:28.646Z,2.37
2022-12-25T04:11:15.309Z,2.50
2022-12-25T04:14:01.427Z,2.40
2022-12-25T04:16:47.844Z,2.53
2022-12-25T04:19:47.619Z,2.72
2022-12-25T04:22:33.581Z,2.25
2022-12-25T04:25:19.738Z,2.15
2022-12-25T04:28:05.781Z,2.97
2022-12-25T04:31:02.029Z,2.60
2022-12-25T04:33:47.986Z,2.50
2022-12-25T04:36:15.398Z,2.40
2022-12-25T04:38:43.139Z,2.40
2022-12-25T04:41:12.561Z,3.05
2022-12-25T04:43:40.262Z,2.50
2022-12-25T04:46:07.996Z,2.45
2022-12-25T04:48:36.856Z,2.78
2022-12-25T04:51:11.534Z,2.40
2022-12-25T04:53:39.169Z,3.97
2022-12-25T04:56:06.641Z,2.90
2022-12-25T04:58:34.022Z,3.17
2022-12-25T05:01:02.823Z,2.70
2022-12-25T05:03:30.656Z,2.80
2022-12-25T05:05:58.729Z,2.80
2022-12-25T05:08:26.645Z,2.80
2022-12-25T05:10:54.001Z,2.42
2022-12-25T05:13:21.450Z,2.30
2022-12-25T05:15:49.246Z,2.65
2022-12-25T05:18:16.683Z,2.40
2022-12-25T05:20:51.586Z,2.80
2022-12-25T05:23:19.418Z,3.78
2022-12-25T05:25:46.837Z,2.20
2022-12-25T05:28:14.393Z,2.53
2022-12-25T05:30:42.333Z,3.55
2022-12-25T05:33:09.806Z,3.58
2022-12-25T05:35:38.171Z,3.22
2022-12-25T05:38:06.740Z,2.70
2022-12-25T05:40:34.988Z,3.00
2022-12-25T05:43:02.472Z,2.55
2022-12-25T05:45:31.212Z,2.60
2022-12-25T05:47:58.577Z,2.42
2022-12-25T05:50:26.250Z,3.17
2022-12-25T05:53:09.047Z,2.83
2022-12-25T05:55:38.452Z,3.45
2022-12-25T05:58:07.380Z,3.25
2022-12-25T06:00:34.913Z,2.87
2022-12-25T06:03:03.158Z,2.90
2022-12-25T06:05:31.123Z,3.00
2022-12-25T06:07:58.722Z,3.22
2022-12-25T06:10:26.423Z,3.87
2022-12-25T06:12:54.520Z,3.05
2022-12-25T06:15:21.941Z,3.92
2022-12-25T06:17:49.581Z,2.60
2022-12-25T06:20:17.055Z,3.17
2022-12-25T06:22:44.462Z,3.92
2022-12-25T06:25:12.317Z,4.10
2022-12-25T06:27:39.747Z,5.62
2022-12-25T06:30:08.095Z,5.70
2022-12-25T06:32:35.829Z,6.62
2022-12-25T06:35:03.424Z,6.78
2022-12-25T06:37:31.779Z,6.15
2022-12-25T06:39:59.465Z,6.43
2022-12-25T06:42:26.943Z,4.32
2022-12-25T06:44:54.434Z,5.00
2022-12-25T06:47:22.099Z,4.87
2022-12-25T06:49:49.505Z,5.60
2022-12-25T06:52:16.933Z,4.68
2022-12-25T06:54:44.593Z,4.53
2022-12-25T06:57:12.050Z,5.82
2022-12-25T06:59:39.457Z,5.53
2022-12-25T07:02:16.402Z,5.82
2022-12-25T07:04:43.836Z,9.00
2022-12-25T07:07:11.990Z,10.32
2022-12-25T07:09:39.570Z,8.40
2022-12-25T07:12:14.470Z,8.15
2022-12-25T07:14:42.353Z,7.93
2022-12-25T07:17:09.817Z,8.25
2022-12-25T07:19:42.723Z,9.32
2022-12-25T07:22:13.422Z,10.32
2022-12-25T07:24:40.776Z,15.73
2022-12-25T07:27:08.453Z,13.20
2022-12-25T07:29:36.213Z,14.52
2022-12-25T07:32:03.762Z,12.15
2022-12-25T07:34:31.305Z,12.57
2022-12-25T07:36:58.976Z,10.85
2022-12-25T07:39:26.345Z,11.07
2022-12-25T07:41:53.704Z,10.00
2022-12-25T07:44:21.513Z,8.48
2022-12-25T07:46:49.393Z,7.50
2022-12-25T07:49:16.762Z,6.62
2022-12-25T07:51:44.439Z,7.25
2022-12-25T07:54:11.851Z,8.73
2022-12-25T07:56:39.232Z,8.43
2022-12-25T07:59:06.906Z,10.05
2022-12-25T08:01:34.503Z,9.85
2022-12-25T08:04:03.047Z,9.13
2022-12-25T08:06:33.129Z,9.60
2022-12-25T08:09:09.422Z,9.15
2022-12-25T08:11:37.365Z,8.75
2022-12-25T08:14:08.826Z,8.40
2022-12-25T08:16:39.737Z,7.43
2022-12-25T08:19:12.254Z,7.40
2022-12-25T08:21:39.659Z,8.18
2022-12-25T08:24:07.196Z,8.57
2022-12-25T08:26:34.916Z,8.00
2022-12-25T08:29:02.360Z,7.80
2022-12-25T08:31:30.555Z,9.50
2022-12-25T08:33:58.628Z,11.98
2022-12-25T08:36:26.360Z,9.25
2022-12-25T08:39:00.386Z,7.65
2022-12-25T08:41:30.593Z,7.87
2022-12-25T08:43:58.276Z,8.10
2022-12-25T08:46:25.797Z,8.07
2022-12-25T08:48:53.704Z,8.82
2022-12-25T08:51:22.290Z,7.30
2022-12-25T08:53:51.054Z,8.50
2022-12-25T08:56:20.019Z,10.23
2022-12-25T08:58:47.416Z,9.02
2022-12-25T09:01:14.899Z,8.05
2022-12-25T09:03:43.506Z,6.57
2022-12-25T09:06:15.820Z,6.03
2022-12-25T09:08:48.568Z,5.82
2022-12-25T09:11:18.141Z,5.47
2022-12-25T09:13:46.157Z,8.65
2022-12-25T09:16:16.719Z,7.75
2022-12-25T09:18:44.166Z,10.27
2022-12-25T09:21:13.520Z,12.88
2022-12-25T09:23:41.411Z,8.60
2022-12-25T09:26:11.853Z,7.30
2022-12-25T09:28:41.629Z,9.18
2022-12-25T09:31:12.730Z,6.57
2022-12-25T09:33:40.463Z,5.65
2022-12-25T09:36:09.183Z,5.75
2022-12-25T09:38:37.347Z,4.50
2022-12-25T09:41:14.984Z,4.32
2022-12-25T09:44:12.973Z,4.62
2022-12-25T09:46:43.658Z,4.80
2022-12-25T09:49:20.933Z,4.50
2022-12-25T09:51:59.713Z,3.97
2022-12-25T09:54:42.253Z,3.22
2022-12-25T09:57:12.150Z,2.80
2022-12-25T09:59:40.108Z,3.15
2022-12-25T10:02:47.134Z,3.72
2022-12-25T10:05:36.341Z,4.50
2022-12-25T10:08:22.233Z,4.72
2022-12-25T10:10:54.887Z,3.45
2022-12-25T10:16:26.175Z,3.62
2022-12-25T10:19:03.004Z,3.85
2022-12-25T10:21:31.010Z,3.47
2022-12-25T10:23:58.311Z,4.30
2022-12-25T10:26:26.326Z,2.45
2022-12-25T10:29:04.025Z,2.55
2022-12-25T10:31:35.149Z,2.37
2022-12-25T10:34:03.769Z,2.80
2022-12-25T10:36:31.783Z,2.10
2022-12-25T10:38:59.186Z,1.90
2022-12-25T10:41:48.221Z,2.33
2022-12-25T10:44:20.287Z,2.20
2022-12-25T10:49:17.291Z,2.62
2022-12-25T10:51:44.818Z,3.47
2022-12-25T10:54:37.556Z,4.90
2022-12-25T10:57:16.348Z,2.45
2022-12-25T10:59:46.326Z,2.30
2022-12-25T11:02:31.639Z,2.33
2022-12-25T11:05:07.974Z,2.35
2022-12-25T11:07:46.618Z,1.92
2022-12-25T11:10:29.642Z,1.80
2022-12-25T11:12:58.413Z,2.25
2022-12-25T11:15:44.869Z,1.70
2022-12-25T11:18:21.600Z,1.80
2022-12-25T11:20:50.040Z,1.60
2022-12-25T11:23:20.208Z,1.77
2022-12-25T11:25:59.399Z,1.75
2022-12-25T11:28:28.732Z,2.40
2022-12-25T11:31:19.184Z,1.85
2022-12-25T11:33:56.261Z,1.62
2022-12-25T11:36:43.529Z,1.50
2022-12-25T11:39:24.084Z,1.40
2022-12-25T11:41:55.262Z,1.30
2022-12-25T11:44:30.575Z,1.97
2022-12-25T11:47:03.692Z,2.45
2022-12-25T11:49:35.332Z,1.17
2022-12-25T11:52:02.843Z,2.30
2022-12-25T11:54:44.487Z,2.12
2022-12-25T11:57:12.939Z,1.90
2022-12-25T11:59:53.460Z,5.30
2022-12-25T12:02:32.061Z,12.15
2022-12-25T12:05:15.507Z,9.15
2022-12-25T12:08:04.581Z,14.13
2022-12-25T12:10:37.890Z,12.80
2022-12-25T12:13:17.776Z,7.15
2022-12-25T12:15:47.565Z,9.30
2022-12-25T12:18:29.300Z,7.80
2022-12-25T12:21:23.488Z,5.70
2022-12-25T12:24:06.014Z,5.70
2022-12-25T12:26:40.836Z,4.15
2022-12-25T12:29:22.539Z,3.17
2022-12-25T12:31:50.580Z,3.35
2022-12-25T12:34:49.315Z,3.37
2022-12-25T12:37:31.915Z,2.95
2022-12-25T12:39:59.835Z,3.75
2022-12-25T12:42:30.238Z,3.47
2022-12-25T12:45:17.103Z,2.72
2022-12-25T12:47:47.956Z,2.60
2022-12-25T12:50:35.974Z,3.30
2022-12-25T12:53:22.198Z,3.87
2022-12-25T12:55:50.782Z,5.22
2022-12-25T12:58:33.465Z,4.97
2022-12-25T13:04:00.708Z,4.37
2022-12-25T13:06:49.483Z,5.35
2022-12-25T13:09:43.626Z,3.55
2022-12-25T13:12:12.257Z,4.12
2022-12-25T13:14:45.391Z,3.45
2022-12-25T13:17:15.709Z,4.32
2022-12-25T13:19:44.063Z,4.25
2022-12-25T13:22:24.381Z,3.80
2022-12-25T13:24:59.140Z,3.97
2022-12-25T13:27:29.144Z,3.87
2022-12-25T13:29:57.431Z,4.15
2022-12-25T13:32:32.889Z,5.37
2022-12-25T13:35:00.915Z,4.28
2022-12-25T13:37:30.937Z,5.40
2022-12-25T13:40:03.507Z,6.25
2022-12-25T13:42:36.696Z,5.87
2022-12-25T13:45:19.894Z,6.15
2022-12-25T13:47:53.057Z,4.90
2022-12-25T13:50:34.023Z,4.72
2022-12-25T13:53:16.681Z,4.68
2022-12-25T13:55:50.183Z,5.07
2022-12-25T13:58:39.245Z,6.03
2022-12-25T14:01:06.855Z,6.00
2022-12-25T14:03:41.824Z,5.50
2022-12-25T14:06:19.830Z,5.12
2022-12-25T14:08:48.072Z,5.32
2022-12-25T14:11:20.406Z,5.25
2022-12-25T14:13:49.865Z,5.60
2022-12-25T14:16:18.481Z,6.12
2022-12-25T14:19:23.340Z,8.43
2022-12-25T14:21:54.865Z,9.23
2022-12-25T14:24:24.199Z,8.80
2022-12-25T14:27:04.414Z,6.70
2022-12-25T14:29:37.025Z,6.45
2022-12-25T14:32:06.709Z,6.12
2022-12-25T14:34:34.533Z,6.45
2022-12-25T14:37:03.447Z,7.00
2022-12-25T14:39:31.237Z,5.40
2022-12-25T14:41:58.954Z,6.32
2022-12-25T14:44:38.705Z,5.78
2022-12-25T14:47:16.517Z,6.93
2022-12-25T14:49:44.724Z,8.25
2022-12-25T14:52:21.343Z,7.50
2022-12-25T14:54:52.597Z,8.98
2022-12-25T14:57:29.136Z,9.30
2022-12-25T14:59:59.474Z,9.18
2022-12-25T15:02:27.712Z,8.63
2022-12-25T15:04:55.264Z,7.93
2022-12-25T15:07:31.343Z,8.27
2022-12-25T15:10:27.226Z,8.15
2022-12-25T15:12:46.431Z,8.95
2022-12-25T15:15:14.127Z,7.87
2022-12-25T15:17:41.820Z,8.80
2022-12-25T15:20:12.599Z,8.45
2022-12-25T15:23:10.279Z,9.25
2022-12-25T15:25:28.919Z,10.85
2022-12-25T15:27:56.619Z,12.02
2022-12-25T15:30:24.063Z,11.80
2022-12-25T15:32:51.478Z,11.45
2022-12-25T15:35:20.887Z,12.45
2022-12-25T15:37:48.333Z,12.63
2022-12-25T15:40:16.569Z,11.60
2022-12-25T15:42:44.943Z,12.55
2022-12-25T15:45:22.095Z,12.27
2022-12-25T15:47:49.915Z,11.65
2022-12-25T15:50:18.791Z,10.50
2022-12-25T15:52:47.327Z,10.10
2022-12-25T15:55:15.683Z,11.02
2022-12-25T15:57:44.874Z,10.43
2022-12-25T16:00:18.898Z,9.85
2022-12-25T16:02:46.870Z,9.45
2022-12-25T16:05:14.436Z,9.65
2022-12-25T16:07:41.930Z,9.38
2022-12-25T16:10:18.550Z,10.10
2022-12-25T16:12:46.385Z,9.05
2022-12-25T16:15:15.290Z,7.87
2022-12-25T16:17:42.734Z,10.07
2022-12-25T16:20:10.613Z,10.13
2022-12-25T16:22:40.941Z,9.15
2022-12-25T16:25:16.918Z,7.90
2022-12-25T16:27:45.233Z,7.15
2022-12-25T16:30:15.331Z,7.22
2022-12-25T16:32:44.190Z,7.30
2022-12-25T16:35:12.209Z,8.15
2022-12-25T16:37:39.687Z,7.55
2022-12-25T16:40:09.561Z,7.72
2022-12-25T16:42:38.049Z,8.45
2022-12-25T16:45:06.180Z,8.10
2022-12-25T16:47:33.828Z,8.23
2022-12-25T16:50:03.475Z,10.13
2022-12-25T16:52:34.657Z,9.00
2022-12-25T16:55:03.570Z,11.03
2022-12-25T16:57:32.112Z,11.02
2022-12-25T16:59:59.983Z,12.07
2022-12-25T17:02:28.037Z,11.70
2022-12-25T17:04:55.525Z,11.82
2022-12-25T17:07:23.275Z,12.50
2022-12-25T17:09:51.064Z,11.90
2022-12-25T17:12:18.548Z,11.70
2022-12-25T17:14:45.944Z,10.95
2022-12-25T17:17:13.632Z,9.52
2022-12-25T17:19:41.636Z,9.65
2022-12-25T17:22:09.087Z,10.32
2022-12-25T17:24:37.559Z,9.40
2022-12-25T17:27:08.568Z,10.30
2022-12-25T17:29:36.725Z,11.73
2022-12-25T17:32:04.417Z,12.75
2022-12-25T17:34:31.857Z,12.50
2022-12-25T17:36:59.780Z,12.93
2022-12-25T17:39:27.580Z,11.25
2022-12-25T17:41:55.370Z,10.50
2022-12-25T17:44:23.097Z,10.52
2022-12-25T17:46:51.245Z,9.60
2022-12-25T17:49:20.953Z,9.93
2022-12-25T17:51:48.886Z,11.60
2022-12-25T17:54:16.695Z,10.73
2022-12-25T17:56:44.313Z,9.93
2022-12-25T17:59:18.033Z,9.00
2022-12-25T18:01:47.212Z,6.68
2022-12-25T18:04:15.267Z,8.93
2022-12-25T18:06:43.078Z,8.82
2022-12-25T18:09:11.592Z,9.32
2022-12-25T18:11:41.307Z,8.32
2022-12-25T18:14:12.476Z,8.05
2022-12-25T18:16:43.122Z,8.33
2022-12-25T18:19:15.039Z,9.05
2022-12-25T18:21:42.816Z,9.48
2022-12-25T18:24:11.134Z,9.00
2022-12-25T18:26:38.575Z,9.73
2022-12-25T18:29:07.101Z,9.57
2022-12-25T18:31:34.706Z,10.77
2022-12-25T18:34:03.813Z,10.68
2022-12-25T18:36:31.631Z,11.30
2022-12-25T18:38:59.340Z,10.90
2022-12-25T18:41:28.392Z,11.55
2022-12-25T18:43:56.372Z,13.45
2022-12-25T18:46:26.116Z,13.60
2022-12-25T18:48:55.704Z,15.88
2022-12-25T18:51:23.591Z,13.60
2022-12-25T18:53:51.491Z,12.52
2022-12-25T18:56:20.226Z,10.85
2022-12-25T18:58:48.499Z,13.05
2022-12-25T19:01:26.223Z,11.43
2022-12-25T19:04:00.166Z,11.25
2022-12-25T19:06:33.190Z,10.05
2022-12-25T19:09:05.526Z,8.77
2022-12-25T19:11:32.934Z,8.60
2022-12-25T19:14:00.630Z,9.32
2022-12-25T19:16:28.096Z,9.43
2022-12-25T19:18:55.537Z,8.98
2022-12-25T19:21:23.466Z,7.78
2022-12-25T19:23:51.203Z,8.85
2022-12-25T19:26:18.615Z,9.35
2022-12-25T19:28:46.393Z,8.68
2022-12-25T19:31:14.099Z,7.87
2022-12-25T19:33:42.314Z,8.30
2022-12-25T19:36:12.451Z,8.50
2022-12-25T19:38:40.434Z,8.35
2022-12-25T19:41:08.959Z,8.82
2022-12-25T19:43:39.061Z,9.27
2022-12-25T19:46:08.525Z,8.13
2022-12-25T19:48:36.266Z,8.80
2022-12-25T19:51:04.000Z,7.87
2022-12-25T19:53:31.450Z,9.18
2022-12-25T19:56:01.790Z,9.18
2022-12-25T19:58:29.960Z,8.73
2022-12-25T20:01:07.317Z,9.27
2022-12-25T20:03:38.821Z,9.02
2022-12-25T20:06:24.650Z,8.98
2022-12-25T20:08:55.413Z,7.50
2022-12-25T20:11:24.094Z,8.10
2022-12-25T20:13:52.065Z,8.07
2022-12-25T20:16:19.883Z,9.20
2022-12-25T20:18:47.464Z,7.65
2022-12-25T20:21:17.889Z,7.78
2022-12-25T20:23:46.775Z,8.23
2022-12-25T20:26:15.772Z,7.93
2022-12-25T20:28:44.347Z,7.45
2022-12-25T20:31:21.470Z,7.80
2022-12-25T20:33:50.224Z,7.45
2022-12-25T20:36:18.853Z,7.32
2022-12-25T20:38:46.683Z,7.50
2022-12-25T20:41:32.432Z,8.00
2022-12-25T20:44:01.769Z,8.15
2022-12-25T20:46:29.673Z,7.65
2022-12-25T20:48:57.176Z,7.60
2022-12-25T20:51:25.675Z,7.68
2022-12-25T20:53:54.204Z,8.00
2022-12-25T20:56:24.778Z,7.68
2022-12-25T20:58:59.929Z,7.90
2022-12-25T21:01:29.602Z,6.93
2022-12-25T21:03:58.112Z,7.75
2022-12-25T21:06:25.648Z,8.35
2022-12-25T21:08:53.446Z,7.70
2022-12-25T21:11:21.882Z,8.07
2022-12-25T21:13:49.964Z,8.10
2022-12-25T21:16:20.499Z,6.95
2022-12-25T21:18:51.149Z,7.25
2022-12-25T21:21:19.911Z,6.97
2022-12-25T21:23:47.954Z,7.12
2022-12-25T21:26:20.857Z,7.12
2022-12-25T21:28:49.981Z,7.47
2022-12-25T21:31:19.097Z,7.40
2022-12-25T21:33:52.951Z,7.07
2022-12-25T21:36:24.331Z,7.37
2022-12-25T21:39:02.766Z,7.72
2022-12-25T21:41:32.097Z,7.75
2022-12-25T21:43:59.645Z,7.53
2022-12-25T21:46:27.983Z,7.32
2022-12-25T21:48:55.956Z,8.07
2022-12-25T21:51:50.486Z,7.30
2022-12-25T21:54:19.854Z,7.32
2022-12-25T21:56:47.955Z,8.15
2022-12-25T21:59:18.064Z,7.72
2022-12-25T22:01:46.375Z,8.02
2022-12-25T22:04:15.151Z,7.62
2022-12-25T22:07:01.897Z,7.60
2022-12-25T22:09:29.681Z,8.52
2022-12-25T22:12:16.579Z,7.85
2022-12-25T22:14:54.647Z,8.00
2022-12-25T22:17:44.141Z,7.10
2022-12-25T22:20:15.039Z,7.30
2022-12-25T22:22:42.875Z,7.62
2022-12-25T22:25:11.091Z,7.40
2022-12-25T22:27:39.918Z,7.62
2022-12-25T22:30:10.931Z,6.55
2022-12-25T22:32:38.974Z,7.40
2022-12-25T22:35:07.039Z,7.53
2022-12-25T22:37:35.897Z,6.93
2022-12-25T22:40:05.368Z,6.87
2022-12-25T22:42:33.060Z,6.80
2022-12-25T22:45:00.502Z,7.22
2022-12-25T22:47:28.316Z,7.15
2022-12-25T22:49:55.754Z,7.28
2022-12-25T22:52:23.160Z,6.82
2022-12-25T22:54:50.938Z,8.05
2022-12-25T22:57:18.642Z,7.43
2022-12-25T22:59:46.692Z,7.25
2022-12-25T23:02:14.515Z,7.03
2022-12-25T23:04:42.144Z,7.65
2022-12-25T23:07:10.875Z,7.43
2022-12-25T23:09:38.566Z,6.87
2022-12-25T23:12:06.365Z,7.80
2022-12-25T23:14:39.548Z,7.53
2022-12-25T23:17:30.513Z,7.32
2022-12-25T23:20:18.062Z,6.60
2022-12-25T23:23:05.550Z,7.50
2022-12-25T23:25:53.240Z,7.00
2022-12-25T23:28:39.769Z,7.80
2022-12-25T23:31:07.256Z,7.35
2022-12-25T23:33:35.079Z,8.18
2022-12-25T23:36:02.515Z,7.35
2022-12-25T23:38:29.940Z,7.53
2022-12-25T23:40:57.597Z,7.70
2022-12-25T23:43:25.686Z,7.82
2022-12-25T23:45:53.281Z,7.75
2022-12-25T23:48:21.069Z,8.85
2022-12-25T23:50:48.550Z,7.12
2022-12-25T23:53:15.987Z,7.97
2022-12-25T23:55:43.698Z,8.10
2022-12-25T23:58:11.128Z,7.57
